Time;durP1;ratioP1;P1;durP2;ratioP2;P2;SDS_P1;SDS_P2;PMS_P1;PMS_P2;Temp;Humidity;BMP_temperature;BMP_pressure;BME280_temperature;BME280_humidity;BME280_pressure;Samples;Min_cycle;Max_cycle;Signal;HPM_P1;HPM_P2
2021/07/07 00:04:30;;;;;;;4.00;3.30;;;;;;;16.90;100.00;98952.91;10501417;28;20178;-85
2021/07/07 00:09:49;;;;;;;4.23;3.17;;;;;;;16.79;100.00;98964.34;10502400;28;20203;-83
2021/07/07 00:15:15;;;;;;;6.10;3.67;;;;;;;16.72;100.00;98941.56;10503967;28;20175;-83
2021/07/07 00:20:41;;;;;;;3.60;2.80;;;;;;;16.66;100.00;98915.56;10502499;28;20545;-83
2021/07/07 00:26:00;;;;;;;3.70;3.40;;;;;;;16.70;100.00;98934.91;10502692;28;20211;-85
2021/07/07 00:31:20;;;;;;;4.23;3.93;;;;;;;16.86;100.00;98935.56;10503758;28;20194;-84
2021/07/07 00:36:39;;;;;;;7.03;3.33;;;;;;;16.84;100.00;98938.00;10510168;28;20623;-83
2021/07/07 00:41:58;;;;;;;9.17;3.77;;;;;;;16.65;100.00;98935.44;10503080;28;20171;-83
2021/07/07 00:47:17;;;;;;;9.00;4.07;;;;;;;16.75;100.00;98951.81;10508345;28;20210;-85
2021/07/07 00:52:36;;;;;;;3.70;3.50;;;;;;;16.77;100.00;98970.78;10509856;28;20171;-84
2021/07/07 00:57:57;;;;;;;8.53;5.30;;;;;;;16.73;100.00;98967.31;10508288;28;20575;-84
2021/07/07 01:03:16;;;;;;;5.67;3.20;;;;;;;16.61;100.00;98949.44;10514818;28;20166;-82
2021/07/07 01:08:35;;;;;;;6.23;3.50;;;;;;;16.63;100.00;98921.22;10509874;28;20238;-83
2021/07/07 01:13:54;;;;;;;3.93;3.63;;;;;;;16.86;100.00;98964.13;10520533;28;20175;-83
2021/07/07 01:19:14;;;;;;;5.00;3.60;;;;;;;16.87;100.00;98965.69;10517172;28;20543;-83
2021/07/07 01:24:33;;;;;;;5.43;4.20;;;;;;;16.75;100.00;98962.13;10515107;28;20175;-83
2021/07/07 01:29:53;;;;;;;3.93;3.53;;;;;;;16.72;100.00;98963.78;10512834;28;20210;-83
2021/07/07 01:35:14;;;;;;;7.60;4.27;;;;;;;16.70;100.00;98963.44;10499994;28;20588;-83
2021/07/07 01:40:33;;;;;;;6.80;3.60;;;;;;;16.68;100.00;98963.09;10459301;28;20183;-84
2021/07/07 01:45:52;;;;;;;3.80;3.50;;;;;;;16.69;100.00;98963.91;10477859;28;20174;-83
2021/07/07 01:51:11;;;;;;;4.17;3.40;;;;;;;16.67;100.00;98949.66;10497532;28;20178;-83
2021/07/07 01:56:31;;;;;;;5.50;3.30;;;;;;;16.67;100.00;98946.88;10498852;28;20183;-83
2021/07/07 02:01:51;;;;;;;14.67;3.90;;;;;;;16.71;100.00;98953.13;10498601;28;20261;-83
2021/07/07 02:07:10;;;;;;;8.43;4.40;;;;;;;16.86;100.00;98961.38;10510349;28;20224;-83
2021/07/07 02:12:29;;;;;;;5.10;4.00;;;;;;;16.68;100.00;98951.97;10526885;28;20183;-83
2021/07/07 02:17:49;;;;;;;6.77;3.63;;;;;;;16.64;100.00;98967.22;10518363;28;20179;-83
2021/07/07 02:23:11;;;;;;;4.73;3.30;;;;;;;16.58;100.00;98963.41;10515281;28;20175;-83
2021/07/07 02:28:30;;;;;;;7.50;3.97;;;;;;;16.66;100.00;98971.13;10510868;28;20660;-84
2021/07/07 02:33:49;;;;;;;7.40;4.40;;;;;;;16.83;100.00;98958.69;10505268;28;20214;-83
2021/07/07 02:39:08;;;;;;;10.07;4.60;;;;;;;16.69;100.00;98977.78;10521209;28;20186;-83
2021/07/07 02:44:27;;;;;;;8.10;3.47;;;;;;;16.63;100.00;98972.00;10504591;28;20186;-83
2021/07/07 02:49:46;;;;;;;16.20;3.87;;;;;;;16.66;100.00;98973.91;10496843;28;20202;-83
2021/07/07 02:55:07;;;;;;;6.87;3.63;;;;;;;16.83;100.00;98981.69;10501947;28;20262;-83
2021/07/07 03:00:38;;;;;;;6.07;3.87;;;;;;;16.84;100.00;98988.00;10498763;28;20174;-83
2021/07/07 03:06:00;;;;;;;4.43;4.03;;;;;;;16.60;100.00;98999.88;10496119;28;20295;-84
2021/07/07 03:11:19;;;;;;;8.47;3.70;;;;;;;16.68;100.00;98995.66;10497404;28;20191;-83
2021/07/07 03:16:38;;;;;;;7.90;4.23;;;;;;;16.48;100.00;98986.72;10498068;28;20560;-84
2021/07/07 03:21:57;;;;;;;5.70;4.37;;;;;;;16.64;100.00;99012.44;10504146;28;20178;-83
2021/07/07 03:27:15;;;;;;;6.90;4.10;;;;;;;16.49;100.00;99010.50;10505610;28;20202;-83
2021/07/07 03:32:34;;;;;;;13.30;4.80;;;;;;;16.50;100.00;99009.28;10505615;28;20178;-83
2021/07/07 03:37:54;;;;;;;5.50;4.53;;;;;;;16.37;100.00;98987.03;10503141;28;20198;-84
2021/07/07 03:43:13;;;;;;;13.57;4.67;;;;;;;16.36;100.00;98993.03;10504272;28;20174;-83
2021/07/07 03:48:32;;;;;;;8.67;4.70;;;;;;;16.46;100.00;99000.28;10503298;28;20274;-84
2021/07/07 03:53:50;;;;;;;11.60;4.73;;;;;;;16.40;100.00;99002.03;10503578;28;20171;-85
2021/07/07 03:59:09;;;;;;;9.30;5.23;;;;;;;16.50;100.00;99018.41;10504316;28;20624;-85
2021/07/07 04:04:29;;;;;;;19.23;4.50;;;;;;;16.43;100.00;98998.38;10502921;28;20163;-85
2021/07/07 04:09:48;;;;;;;13.67;5.10;;;;;;;16.50;100.00;99010.06;10461083;28;20631;-85
2021/07/07 04:15:09;;;;;;;5.43;3.80;;;;;;;16.39;100.00;98984.59;10462498;28;20258;-84
2021/07/07 04:20:28;;;;;;;5.20;4.23;;;;;;;16.41;100.00;98982.16;10460988;28;20250;-86
2021/07/07 04:25:47;;;;;;;5.53;4.03;;;;;;;16.61;100.00;99013.31;10460939;28;20668;-86
2021/07/07 04:31:05;;;;;;;5.50;4.07;;;;;;;16.50;100.00;99025.94;10460173;28;20215;-86
2021/07/07 04:36:24;;;;;;;4.57;3.80;;;;;;;16.50;100.00;99039.81;10473599;28;20223;-86
2021/07/07 04:41:43;;;;;;;8.93;4.23;;;;;;;16.67;100.00;99028.22;10502782;28;20175;-86
2021/07/07 04:47:02;;;;;;;7.93;4.20;;;;;;;16.69;100.00;99036.13;10502324;28;20673;-86
2021/07/07 04:52:22;;;;;;;10.93;4.63;;;;;;;16.55;100.00;99020.63;10501143;28;20195;-86
2021/07/07 04:57:41;;;;;;;10.57;4.73;;;;;;;16.57;100.00;99034.06;10500438;28;20190;-86
2021/07/07 05:03:01;;;;;;;10.20;4.57;;;;;;;16.61;100.00;99049.41;10501316;28;20725;-87
2021/07/07 05:08:20;;;;;;;6.70;4.90;;;;;;;16.79;100.00;99080.25;10500484;28;20218;-86
2021/07/07 05:13:40;;;;;;;12.00;4.83;;;;;;;16.71;100.00;99076.13;10501074;28;20178;-85
2021/07/07 05:18:59;;;;;;;11.13;4.97;;;;;;;16.61;100.00;99073.66;10500248;28;20175;-85
2021/07/07 05:24:18;;;;;;;5.73;5.23;;;;;;;16.65;100.00;99052.88;10501122;28;20599;-85
2021/07/07 05:29:37;;;;;;;6.03;4.40;;;;;;;16.76;100.00;99030.34;10499527;28;20206;-83
2021/07/07 05:34:56;;;;;;;6.03;4.23;;;;;;;16.83;100.00;99053.16;10498618;28;20218;-83
2021/07/07 05:40:17;;;;;;;7.10;5.13;;;;;;;16.89;100.00;99041.03;10498979;28;20191;-84
2021/07/07 05:45:36;;;;;;;4.77;4.37;;;;;;;16.94;100.00;99050.84;10500251;28;20191;-83
2021/07/07 05:50:56;;;;;;;7.83;4.17;;;;;;;17.07;100.00;99083.00;10498289;28;20210;-84
2021/07/07 05:56:16;;;;;;;4.73;4.20;;;;;;;17.11;100.00;99080.91;10499830;28;20688;-83
2021/07/07 06:01:35;;;;;;;6.73;4.60;;;;;;;17.11;100.00;99080.09;10498573;28;20265;-83
2021/07/07 06:06:54;;;;;;;6.87;4.43;;;;;;;17.06;100.00;99081.44;10496767;28;20576;-85
2021/07/07 06:12:13;;;;;;;4.60;4.20;;;;;;;17.19;100.00;99112.03;10497967;28;20190;-84
2021/07/07 06:17:32;;;;;;;6.93;4.70;;;;;;;17.22;100.00;99109.13;10499007;28;20174;-84
2021/07/07 06:22:51;;;;;;;5.70;4.90;;;;;;;17.19;100.00;99148.97;10495762;28;20178;-83
2021/07/07 06:28:11;;;;;;;5.40;4.90;;;;;;;17.09;100.00;99116.69;10498503;28;20206;-84
2021/07/07 06:33:31;;;;;;;5.03;4.60;;;;;;;17.19;100.00;99106.47;10495666;28;20591;-86
2021/07/07 06:38:49;;;;;;;5.07;4.67;;;;;;;17.39;100.00;99134.91;10497065;28;20179;-83
2021/07/07 06:44:09;;;;;;;11.60;5.77;;;;;;;17.41;100.00;99158.25;10498087;28;20174;-83
2021/07/07 06:49:27;;;;;;;6.77;4.80;;;;;;;17.37;100.00;99179.81;10496409;28;20210;-83
2021/07/07 06:54:48;;;;;;;5.50;4.67;;;;;;;17.28;100.00;99168.59;10497271;28;20175;-83
2021/07/07 07:00:12;;;;;;;5.10;4.70;;;;;;;17.31;100.00;99156.56;10497649;28;20166;-83
2021/07/07 07:05:34;;;;;;;8.33;5.30;;;;;;;17.24;100.00;99170.66;10496080;28;20282;-75
2021/07/07 07:10:53;;;;;;;15.00;5.80;;;;;;;17.26;100.00;99159.09;10496913;28;20672;-79
2021/07/07 07:16:13;;;;;;;5.47;4.93;;;;;;;17.20;100.00;99155.28;10497544;28;20617;-79
2021/07/07 07:21:32;;;;;;;6.27;4.67;;;;;;;17.27;100.00;99158.66;10495724;28;20186;-80
2021/07/07 07:26:51;;;;;;;8.37;4.97;;;;;;;17.43;100.00;99169.72;10485925;28;20571;-79
2021/07/07 07:32:10;;;;;;;5.63;5.23;;;;;;;17.67;100.00;99187.69;10496702;28;20175;-79
2021/07/07 07:37:43;;;;;;;5.77;5.20;;;;;;;17.72;100.00;99198.25;10494998;28;20222;-79
2021/07/07 07:43:09;;;;;;;7.53;6.27;;;;;;;17.80;100.00;99200.38;10494339;28;20187;-79
2021/07/07 07:48:29;;;;;;;6.93;6.33;;;;;;;18.04;100.00;99198.03;10493141;28;20214;-80
2021/07/07 07:53:48;;;;;;;8.83;6.80;;;;;;;18.27;100.00;99203.28;10496022;28;20653;-81
2021/07/07 07:59:09;;;;;;;8.93;6.13;;;;;;;18.24;100.00;99220.91;10495386;28;20617;-80
2021/07/07 08:04:28;;;;;;;7.03;6.43;;;;;;;18.05;100.00;99216.31;10498297;28;20226;-81
2021/07/07 08:09:48;;;;;;;8.27;7.53;;;;;;;18.18;100.00;99198.38;10503269;28;20315;-80
2021/07/07 08:15:09;;;;;;;16.97;6.90;;;;;;;18.72;100.00;99199.75;10503694;28;20545;-82
2021/07/07 08:20:29;;;;;;;6.33;5.83;;;;;;;19.29;100.00;99202.09;10501237;28;20182;-80
2021/07/07 08:25:48;;;;;;;6.27;5.77;;;;;;;19.27;100.00;99204.56;10503382;28;20178;-80
2021/07/07 08:31:07;;;;;;;8.00;5.90;;;;;;;19.47;100.00;99210.56;10501462;28;20217;-80
2021/07/07 08:36:26;;;;;;;6.97;6.27;;;;;;;19.23;100.00;99222.66;10501187;28;20214;-80
2021/07/07 08:41:45;;;;;;;6.63;5.00;;;;;;;19.06;100.00;99229.63;10502878;28;20640;-80
2021/07/07 08:47:06;;;;;;;7.23;4.17;;;;;;;19.22;100.00;99221.88;10502398;28;20206;-80
2021/07/07 08:52:25;;;;;;;6.60;4.20;;;;;;;19.50;100.00;99216.06;10499434;28;20190;-81
2021/07/07 08:57:46;;;;;;;8.63;4.80;;;;;;;19.90;100.00;99211.31;10459571;28;20175;-81
2021/07/07 09:03:11;;;;;;;6.17;5.57;;;;;;;20.15;100.00;99222.31;10459616;28;20176;-81
2021/07/07 09:08:36;;;;;;;5.07;4.30;;;;;;;20.47;100.00;99232.97;10459225;28;20563;-81
2021/07/07 09:14:08;;;;;;;4.70;4.30;;;;;;;20.90;100.00;99230.75;10458215;28;20195;-80
2021/07/07 09:19:31;;;;;;;5.83;4.30;;;;;;;22.08;100.00;99244.19;10457769;28;20179;-82
2021/07/07 09:25:00;;;;;;;4.50;4.20;;;;;;;22.42;100.00;99264.16;10489775;28;20179;-82
2021/07/07 09:30:19;;;;;;;8.77;3.47;;;;;;;22.40;100.00;99263.06;10500457;28;20289;-82
2021/07/07 09:35:41;;;;;;;5.00;3.80;;;;;;;21.90;100.00;99284.22;10457746;28;20223;-83
2021/07/07 09:41:10;;;;;;;4.03;3.40;;;;;;;20.88;100.00;99289.16;10458102;28;20244;-83
2021/07/07 09:46:29;;;;;;;4.20;3.60;;;;;;;20.78;100.00;99281.22;10458939;28;20179;-83
2021/07/07 09:51:49;;;;;;;4.27;3.97;;;;;;;20.51;100.00;99289.50;10467507;28;20178;-83
2021/07/07 09:57:09;;;;;;;3.40;3.20;;;;;;;20.25;100.00;99269.38;10499828;28;20202;-83
2021/07/07 10:02:28;;;;;;;7.50;4.60;;;;;;;21.00;100.00;99282.69;10498649;28;20190;-84
2021/07/07 10:07:49;;;;;;;9.60;3.17;;;;;;;20.68;100.00;99290.78;10497811;28;20210;-84
2021/07/07 10:13:10;;;;;;;3.97;3.03;;;;;;;20.50;100.00;99269.16;10500765;28;20190;-84
2021/07/07 10:18:29;;;;;;;2.70;2.50;;;;;;;20.87;100.00;99273.63;10504115;28;20175;-83
2021/07/07 10:23:50;;;;;;;2.27;2.10;;;;;;;21.55;100.00;99275.88;10500012;28;20170;-82
2021/07/07 10:29:11;;;;;;;3.37;2.20;;;;;;;22.59;92.94;99277.28;10498318;28;20198;-82
2021/07/07 10:34:30;;;;;;;2.90;2.00;;;;;;;23.25;98.00;99286.44;10497066;28;20660;-85
2021/07/07 10:39:49;;;;;;;5.20;2.43;;;;;;;22.78;87.16;99281.56;10497938;28;20641;-80
2021/07/07 10:45:09;;;;;;;3.50;2.37;;;;;;;22.40;95.91;99299.53;10497642;28;20239;-80
2021/07/07 10:50:37;;;;;;;3.77;2.30;;;;;;;23.52;90.70;99284.19;10496263;28;20295;-80
2021/07/07 10:55:58;;;;;;;2.70;1.50;;;;;;;24.96;69.07;99291.78;10496444;28;20545;-81
2021/07/07 11:01:43;;;;;;;2.13;1.87;;;;;;;24.54;64.80;99302.69;10497489;28;20284;-80
2021/07/07 11:07:28;;;;;;;4.53;1.93;;;;;;;24.52;62.91;99308.00;10495864;28;20224;-81
2021/07/07 11:12:54;;;;;;;2.03;1.70;;;;;;;23.96;62.60;99310.31;10497333;28;20171;-80
2021/07/07 11:18:19;;;;;;;3.13;1.80;;;;;;;24.25;67.12;99300.66;10496202;28;20178;-81
2021/07/07 11:23:39;;;;;;;2.37;1.87;;;;;;;25.35;57.03;99293.88;10496894;28;20218;-83
2021/07/07 11:28:59;;;;;;;6.83;1.93;;;;;;;24.84;59.42;99295.69;10496995;28;20217;-81
2021/07/07 11:34:18;;;;;;;1.70;1.50;;;;;;;24.91;64.55;99282.00;10495454;28;20222;-81
2021/07/07 11:39:36;;;;;;;3.60;1.87;;;;;;;24.97;60.21;99277.22;10501599;28;20183;-81
2021/07/07 11:44:56;;;;;;;2.43;1.70;;;;;;;25.58;59.26;99284.41;10504970;28;20218;-81
2021/07/07 11:50:15;;;;;;;2.13;1.60;;;;;;;25.72;57.58;99289.19;10503090;28;20215;-78
2021/07/07 11:55:52;;;;;;;2.90;1.70;;;;;;;25.16;57.32;99279.31;10504716;28;20175;-80
2021/07/07 12:01:18;;;;;;;2.30;1.63;;;;;;;26.23;57.72;99281.50;10504362;28;20198;-80
2021/07/07 12:06:41;;;;;;;4.53;2.40;;;;;;;27.82;59.23;99266.25;10502418;28;20206;-78
2021/07/07 12:12:07;;;;;;;4.33;1.73;;;;;;;27.24;51.85;99283.28;10503680;28;20265;-78
2021/07/07 12:17:26;;;;;;;2.40;1.60;;;;;;;27.13;51.85;99271.91;10502218;28;20649;-79
2021/07/07 12:23:01;;;;;;;5.53;2.17;;;;;;;27.26;53.44;99275.06;10500350;28;20194;-79
2021/07/07 12:28:20;;;;;;;3.73;2.00;;;;;;;26.58;57.43;99271.56;10502893;28;20218;-79
2021/07/07 12:33:42;;;;;;;5.37;1.93;;;;;;;27.89;55.76;99262.94;10501910;28;20230;-79
2021/07/07 12:39:13;;;;;;;3.10;1.83;;;;;;;26.66;55.29;99284.69;10501836;28;20190;-78
2021/07/07 12:44:35;;;;;;;4.37;1.80;;;;;;;27.43;56.07;99285.91;10502593;28;20167;-82
2021/07/07 12:49:55;;;;;;;3.90;1.37;;;;;;;28.59;53.15;99290.50;10457320;28;20207;-82
2021/07/07 12:55:28;;;;;;;6.50;1.90;;;;;;;29.88;47.91;99283.41;10461073;28;20183;-82
2021/07/07 13:00:47;;;;;;;3.50;1.50;;;;;;;28.04;49.07;99297.41;10461017;28;20175;-78
2021/07/07 13:06:19;;;;;;;2.40;1.60;;;;;;;27.58;49.23;99305.50;10474258;28;20194;-81
2021/07/07 13:11:38;;;;;;;1.50;1.30;;;;;;;29.31;46.98;99308.19;10492319;28;20225;-80
2021/07/07 13:16:57;;;;;;;4.57;1.73;;;;;;;30.07;44.06;99302.16;10500599;28;20179;-79
2021/07/07 13:22:16;;;;;;;1.67;1.57;;;;;;;30.47;42.68;99286.41;10499872;28;20182;-79
2021/07/07 13:27:36;;;;;;;2.43;1.97;;;;;;;28.64;47.01;99281.25;10500974;28;20736;-79
2021/07/07 13:32:54;;;;;;;2.27;1.97;;;;;;;29.86;46.51;99283.16;10500616;28;20175;-79
2021/07/07 13:38:13;;;;;;;1.87;1.77;;;;;;;28.96;47.21;99274.00;10499138;28;20636;-80
2021/07/07 13:43:36;;;;;;;4.10;2.10;;;;;;;28.67;50.72;99273.78;10500348;28;20179;-81
2021/07/07 13:48:55;;;;;;;2.80;1.77;;;;;;;29.26;47.96;99274.94;10498525;28;20206;-80
2021/07/07 13:54:14;;;;;;;2.27;1.60;;;;;;;29.78;45.98;99264.41;10500106;28;20257;-82
2021/07/07 13:59:34;;;;;;;2.37;1.50;;;;;;;29.96;44.97;99283.69;10499435;28;20625;-83
2021/07/07 14:04:55;;;;;;;3.37;1.33;;;;;;;29.58;46.36;99282.56;10498400;28;20198;-80
2021/07/07 14:10:14;;;;;;;8.20;1.77;;;;;;;30.51;46.02;99279.13;10498602;28;20822;-79
2021/07/07 14:15:33;;;;;;;1.90;1.60;;;;;;;29.57;45.18;99277.41;10497868;28;20187;-80
2021/07/07 14:20:51;;;;;;;2.60;1.73;;;;;;;29.06;48.71;99277.31;10496815;28;20183;-79
2021/07/07 14:26:11;;;;;;;3.03;1.57;;;;;;;28.97;47.40;99286.09;10497207;28;20178;-79
2021/07/07 14:31:30;;;;;;;3.23;1.57;;;;;;;29.49;47.24;99268.69;10496527;28;20210;-82
2021/07/07 14:36:49;;;;;;;2.30;1.63;;;;;;;30.33;44.01;99279.00;10495662;28;20594;-80
2021/07/07 14:42:09;;;;;;;1.60;1.43;;;;;;;30.41;42.26;99277.91;10498411;28;20178;-80
2021/07/07 14:47:30;;;;;;;1.70;1.47;;;;;;;29.15;46.21;99287.09;10496381;28;20587;-83
2021/07/07 14:52:50;;;;;;;2.40;1.67;;;;;;;29.14;46.37;99281.94;10483716;28;20270;-83
2021/07/07 14:58:10;;;;;;;2.23;1.60;;;;;;;29.48;46.93;99274.91;10497670;28;20178;-82
2021/07/07 15:03:29;;;;;;;2.97;1.90;;;;;;;28.79;46.26;99281.78;10495548;28;20194;-82
2021/07/07 15:08:48;;;;;;;2.60;1.93;;;;;;;28.60;48.21;99282.81;10496237;28;20210;-81
2021/07/07 15:14:07;;;;;;;4.23;1.60;;;;;;;28.36;47.91;99282.56;10496752;28;20587;-82
2021/07/07 15:19:26;;;;;;;8.60;2.20;;;;;;;28.92;48.00;99267.81;10495603;28;20694;-83
2021/07/07 15:24:46;;;;;;;2.60;1.47;;;;;;;29.33;45.67;99278.00;10496532;28;20174;-83
2021/07/07 15:30:07;;;;;;;3.90;1.50;;;;;;;27.76;48.67;99277.56;10496901;28;20210;-84
2021/07/07 15:35:26;;;;;;;4.30;1.70;;;;;;;28.00;49.27;99277.09;10495539;28;20577;-82
2021/07/07 15:40:45;;;;;;;3.77;1.80;;;;;;;27.21;51.09;99285.06;10497015;28;20191;-83
2021/07/07 15:46:03;;;;;;;2.40;1.60;;;;;;;28.58;52.04;99280.50;10495821;28;20186;-82
2021/07/07 15:51:22;;;;;;;1.47;1.30;;;;;;;28.88;47.40;99277.88;10493263;28;20210;-83
2021/07/07 15:56:45;;;;;;;2.07;1.50;;;;;;;28.81;47.66;99262.22;10496611;28;20261;-83
2021/07/07 16:02:04;;;;;;;1.47;1.37;;;;;;;27.89;51.26;99265.75;10496092;28;20595;-80
2021/07/07 16:07:23;;;;;;;1.73;1.63;;;;;;;28.21;50.51;99265.06;10493663;28;20210;-81
2021/07/07 16:12:41;;;;;;;1.50;1.40;;;;;;;27.57;51.86;99261.56;10495487;28;20179;-79
2021/07/07 16:18:01;;;;;;;3.90;1.63;;;;;;;28.24;51.54;99268.91;10495324;28;20657;-81
2021/07/07 16:23:20;;;;;;;3.20;1.30;;;;;;;28.27;48.11;99262.25;10494770;28;20617;-79
2021/07/07 16:28:44;;;;;;;2.90;1.37;;;;;;;28.00;50.97;99260.88;10503113;28;20285;-80
2021/07/07 16:34:06;;;;;;;1.67;1.20;;;;;;;28.33;49.03;99255.28;10511695;28;20226;-82
2021/07/07 16:39:25;;;;;;;1.63;1.40;;;;;;;28.57;49.82;99266.84;10529499;28;20275;-80
2021/07/07 16:44:44;;;;;;;1.70;1.53;;;;;;;27.98;50.40;99271.19;10544411;28;20170;-82
2021/07/07 16:50:04;;;;;;;4.07;1.50;;;;;;;28.03;51.42;99267.59;10543077;28;20293;-82
2021/07/07 16:55:25;;;;;;;1.70;1.60;;;;;;;27.67;52.19;99263.66;10544365;28;20178;-80
2021/07/07 17:00:45;;;;;;;1.70;1.60;;;;;;;27.54;52.03;99260.53;10529103;28;20221;-80
2021/07/07 17:06:05;;;;;;;1.70;1.60;;;;;;;27.53;52.66;99258.22;10527232;28;20182;-83
2021/07/07 17:11:24;;;;;;;2.87;1.70;;;;;;;27.30;53.86;99248.09;10527944;28;20202;-82
2021/07/07 17:16:44;;;;;;;2.63;1.60;;;;;;;27.75;52.07;99258.28;10528125;28;20178;-81
2021/07/07 17:22:04;;;;;;;1.47;1.37;;;;;;;28.10;51.38;99252.94;10526776;28;20170;-83
2021/07/07 17:27:23;;;;;;;3.20;1.40;;;;;;;28.60;50.87;99258.06;10527104;28;20198;-80
2021/07/07 17:32:43;;;;;;;1.33;1.23;;;;;;;28.49;50.23;99257.31;10541777;28;20581;-81
2021/07/07 17:38:03;;;;;;;2.90;1.80;;;;;;;29.52;47.31;99264.03;10540538;28;20554;-82
2021/07/07 17:43:21;;;;;;;1.40;1.30;;;;;;;29.98;45.95;99267.66;10526906;28;20174;-83
2021/07/07 17:48:40;;;;;;;1.30;1.20;;;;;;;28.70;49.55;99273.50;10521283;28;20202;-80
2021/07/07 17:54:00;;;;;;;1.40;1.30;;;;;;;26.63;55.92;99281.34;10526773;28;20182;-80
2021/07/07 17:59:19;;;;;;;1.50;1.20;;;;;;;26.01;59.22;99284.13;10526207;28;20625;-82
2021/07/07 18:04:39;;;;;;;1.43;1.33;;;;;;;25.07;62.39;99282.22;10540438;28;20182;-82
2021/07/07 18:09:59;;;;;;;1.40;1.30;;;;;;;24.50;65.24;99279.59;10540950;28;20213;-80
2021/07/07 18:15:18;;;;;;;1.37;1.27;;;;;;;24.02;68.20;99278.25;10543070;28;20169;-85
2021/07/07 18:20:39;;;;;;;2.80;1.70;;;;;;;23.69;70.29;99272.00;10524372;28;20174;-87
2021/07/07 18:25:58;;;;;;;2.53;1.60;;;;;;;23.47;72.37;99285.63;10540831;28;20178;-86
2021/07/07 18:31:17;;;;;;;4.50;1.30;;;;;;;23.43;73.58;99290.63;10539599;28;20225;-87
2021/07/07 18:36:36;;;;;;;2.33;1.33;;;;;;;23.23;75.83;99295.31;10537970;28;20296;-85
2021/07/07 18:41:55;;;;;;;1.40;1.30;;;;;;;23.11;77.57;99304.78;10539926;28;20173;-86
2021/07/07 18:47:14;;;;;;;5.10;1.70;;;;;;;23.01;78.65;99310.91;10524585;28;20193;-86
2021/07/07 18:52:35;;;;;;;2.10;1.80;;;;;;;22.89;79.68;99315.50;10486268;28;20547;-85
2021/07/07 18:57:55;;;;;;;3.27;1.60;;;;;;;22.67;81.17;99319.81;10497499;28;20527;-83
2021/07/07 19:03:14;;;;;;;2.27;1.17;;;;;;;22.43;82.56;99323.78;10497857;28;20187;-82
2021/07/07 19:08:33;;;;;;;1.70;1.47;;;;;;;22.15;85.24;99337.09;10481932;28;20214;-82
2021/07/07 19:13:52;;;;;;;2.13;1.80;;;;;;;22.04;86.73;99325.59;10482371;28;20208;-83
2021/07/07 19:19:12;;;;;;;2.53;1.77;;;;;;;21.80;93.71;99330.31;10497289;28;20186;-83
2021/07/07 19:24:31;;;;;;;1.70;1.50;;;;;;;21.50;95.90;99332.44;10507029;28;20628;-85
2021/07/07 19:29:50;;;;;;;4.50;1.93;;;;;;;21.39;96.59;99343.34;10523304;28;20575;-87
2021/07/07 19:35:13;;;;;;;3.00;1.77;;;;;;;21.17;100.00;99342.69;10536138;28;20224;-87
2021/07/07 19:40:33;;;;;;;2.03;1.70;;;;;;;21.02;100.00;99344.50;10533691;28;20652;-87
2021/07/07 19:45:52;;;;;;;1.93;1.83;;;;;;;20.83;100.00;99328.16;10504661;28;20179;-87
2021/07/07 19:51:11;;;;;;;1.60;1.50;;;;;;;20.77;100.00;99327.22;10495013;28;20211;-87
2021/07/07 19:56:30;;;;;;;2.00;1.90;;;;;;;20.68;100.00;99343.91;10496636;28;20178;-87
2021/07/07 20:01:48;;;;;;;2.40;1.90;;;;;;;20.54;100.00;99359.22;10503264;28;20198;-87
2021/07/07 20:07:07;;;;;;;3.73;1.87;;;;;;;20.32;100.00;99366.91;10502763;28;20186;-88
2021/07/07 20:12:26;;;;;;;2.20;1.93;;;;;;;20.25;100.00;99372.75;10511710;28;20269;-87
2021/07/07 20:17:45;;;;;;;2.33;2.00;;;;;;;19.71;100.00;99376.34;10544886;28;20182;-88
2021/07/07 20:23:07;;;;;;;4.40;2.10;;;;;;;19.51;100.00;99389.84;10543589;28;20189;-86
2021/07/07 20:28:27;;;;;;;3.30;2.23;;;;;;;19.46;100.00;99382.06;10529544;28;20197;-87
2021/07/07 20:33:46;;;;;;;2.20;2.00;;;;;;;19.48;100.00;99404.69;10528141;28;20214;-84
2021/07/07 20:39:05;;;;;;;2.27;2.07;;;;;;;19.42;100.00;99398.13;10530417;28;20166;-84
2021/07/07 20:44:25;;;;;;;3.00;1.80;;;;;;;19.28;100.00;99388.22;10550064;28;20170;-84
2021/07/07 20:49:44;;;;;;;4.80;2.37;;;;;;;19.25;100.00;99388.34;10531789;28;20263;-84
2021/07/07 20:55:05;;;;;;;2.67;2.20;;;;;;;19.14;100.00;99379.56;10548335;28;20181;-85
2021/07/07 21:00:24;;;;;;;1.97;1.87;;;;;;;18.98;100.00;99390.03;10533448;28;20224;-84
2021/07/07 21:05:44;;;;;;;2.27;2.07;;;;;;;18.93;100.00;99393.38;10547388;28;20182;-85
2021/07/07 21:11:03;;;;;;;2.00;1.80;;;;;;;18.77;100.00;99388.69;10547732;28;20205;-86
2021/07/07 21:16:22;;;;;;;2.23;2.13;;;;;;;18.68;100.00;99382.25;10550646;28;20524;-85
2021/07/07 21:21:42;;;;;;;3.00;2.80;;;;;;;18.41;100.00;99392.25;10552079;28;20173;-85
2021/07/07 21:27:03;;;;;;;2.77;2.57;;;;;;;18.27;100.00;99390.69;10531595;28;20174;-85
2021/07/07 21:32:22;;;;;;;2.57;2.47;;;;;;;18.17;100.00;99391.72;10510008;28;20179;-84
2021/07/07 21:37:41;;;;;;;4.07;2.77;;;;;;;18.17;100.00;99385.41;10507378;28;20219;-85
2021/07/07 21:43:03;;;;;;;3.60;3.40;;;;;;;18.17;100.00;99382.63;10505657;28;20198;-86
2021/07/07 21:48:22;;;;;;;3.13;2.93;;;;;;;18.19;100.00;99394.06;10373065;28;20224;-86
2021/07/07 21:53:41;;;;;;;5.00;3.23;;;;;;;18.25;100.00;99406.28;10372621;28;20192;-87
2021/07/07 21:59:00;;;;;;;3.93;2.80;;;;;;;18.08;100.00;99427.78;10411871;28;20568;-86
2021/07/07 22:04:19;;;;;;;2.77;2.63;;;;;;;17.81;100.00;99426.59;10411225;28;20630;-86
2021/07/07 22:09:38;;;;;;;4.27;3.10;;;;;;;17.90;100.00;99435.09;10412052;28;20302;-84
2021/07/07 22:14:57;;;;;;;4.20;3.30;;;;;;;18.00;100.00;99442.38;10412139;28;20172;-85
2021/07/07 22:20:17;;;;;;;3.87;3.30;;;;;;;17.73;100.00;99430.78;10410373;28;20191;-85
2021/07/07 22:25:36;;;;;;;4.57;2.80;;;;;;;17.63;100.00;99427.06;10397173;28;20184;-86
2021/07/07 22:30:56;;;;;;;3.17;2.87;;;;;;;17.55;100.00;99438.03;10396908;28;20302;-88
2021/07/07 22:36:15;;;;;;;3.37;3.17;;;;;;;17.55;100.00;99441.59;10452500;28;20671;-86
2021/07/07 22:41:35;;;;;;;3.40;3.20;;;;;;;17.38;100.00;99431.69;10524805;28;20304;-87
2021/07/07 22:46:54;;;;;;;3.80;3.23;;;;;;;17.39;100.00;99438.81;10524859;28;20173;-86
2021/07/07 22:52:15;;;;;;;3.00;2.80;;;;;;;17.34;100.00;99444.94;10538443;28;20217;-84
2021/07/07 22:57:37;;;;;;;4.20;2.60;;;;;;;17.24;100.00;99443.16;10539629;28;20178;-85
2021/07/07 23:02:56;;;;;;;4.40;2.80;;;;;;;17.19;100.00;99434.53;10524691;28;20586;-83
2021/07/07 23:08:21;;;;;;;2.90;2.70;;;;;;;17.16;100.00;99436.19;10540184;28;20208;-86
2021/07/07 23:13:40;;;;;;;3.40;2.57;;;;;;;17.05;100.00;99421.78;10524188;28;20198;-84
2021/07/07 23:18:58;;;;;;;2.90;2.70;;;;;;;17.01;100.00;99417.50;10537866;28;20169;-86
2021/07/07 23:24:18;;;;;;;3.20;3.00;;;;;;;16.87;100.00;99409.50;10539542;28;20201;-84
2021/07/07 23:29:36;;;;;;;3.97;3.00;;;;;;;16.68;100.00;99418.69;10522576;28;20218;-85
2021/07/07 23:34:55;;;;;;;4.30;3.10;;;;;;;16.70;100.00;99426.59;10541472;28;20221;-85
2021/07/07 23:40:17;;;;;;;3.40;2.43;;;;;;;16.72;100.00;99424.19;10547494;28;20173;-85
2021/07/07 23:45:36;;;;;;;2.63;2.53;;;;;;;16.79;100.00;99430.34;10532191;28;20182;-85
2021/07/07 23:50:55;;;;;;;3.80;2.60;;;;;;;16.62;100.00;99439.09;10530479;28;20672;-85
2021/07/07 23:56:15;;;;;;;3.87;3.43;;;;;;;16.65;100.00;99425.13;10531180;28;20561;-87
